Time;durP1;ratioP1;P1;durP2;ratioP2;P2;SDS_P1;SDS_P2;PMS_P1;PMS_P2;Temp;Humidity;BMP_temperature;BMP_pressure;BME280_temperature;BME280_humidity;BME280_pressure;Samples;Min_cycle;Max_cycle;Signal;HPM_P1;HPM_P2
2022/06/27 00:01:20;;;;;;;;;;;;;;;21.81;60.00;100179.19;6163158;23;1032;-86
2022/06/27 00:03:45;;;;;;;;;;;;;;;21.83;59.90;100188.00;6161007;23;1201;-86
2022/06/27 00:06:11;;;;;;;;;;;;;;;21.60;59.75;100197.38;6160200;23;1928;-86
2022/06/27 00:08:36;;;;;;;;;;;;;;;21.44;60.69;100208.53;6163171;23;801;-86
2022/06/27 00:11:02;;;;;;;;;;;;;;;21.53;60.65;100215.53;6161850;23;934;-85
2022/06/27 00:13:27;;;;;;;;;;;;;;;21.67;60.21;100220.66;6160350;23;1317;-86
2022/06/27 00:15:52;;;;;;;;;;;;;;;21.70;61.09;100213.53;6159785;23;1050;-86
2022/06/27 00:18:17;;;;;;;;;;;;;;;21.62;60.32;100206.16;6160554;23;1279;-86
2022/06/27 00:20:42;;;;;;;;;;;;;;;21.57;60.40;100214.81;6162317;23;1029;-85
2022/06/27 00:23:08;;;;;;;;;;;;;;;21.64;60.08;100198.25;6160752;23;1473;-85
2022/06/27 00:25:33;;;;;;;;;;;;;;;21.52;60.57;100202.00;6163793;23;886;-86
2022/06/27 00:27:58;;;;;;;;;;;;;;;21.63;60.38;100193.88;6160431;23;1892;-86
2022/06/27 00:30:23;;;;;;;;;;;;;;;21.69;60.84;100198.78;6160995;23;1232;-86
2022/06/27 00:32:48;;;;;;;;;;;;;;;21.59;60.21;100204.94;6158939;23;1333;-86
2022/06/27 00:35:14;;;;;;;;;;;;;;;21.67;60.24;100211.47;6164223;23;877;-87
2022/06/27 00:37:39;;;;;;;;;;;;;;;21.74;60.11;100229.16;6162012;23;1000;-86
2022/06/27 00:40:06;;;;;;;;;;;;;;;21.40;61.68;100239.09;6160980;23;972;-85
2022/06/27 00:42:31;;;;;;;;;;;;;;;21.17;62.09;100242.81;6160216;23;1311;-86
2022/06/27 00:44:56;;;;;;;;;;;;;;;21.39;62.10;100242.22;6160820;23;1044;-85
2022/06/27 00:47:21;;;;;;;;;;;;;;;21.50;61.08;100235.75;6163357;23;1936;-86
2022/06/27 00:49:47;;;;;;;;;;;;;;;21.57;60.79;100243.47;6160048;23;1075;-84
2022/06/27 00:52:13;;;;;;;;;;;;;;;21.42;61.85;100236.75;6163869;23;1060;-85
2022/06/27 00:54:39;;;;;;;;;;;;;;;21.28;61.89;100246.69;6160814;23;1172;-86
2022/06/27 00:57:05;;;;;;;;;;;;;;;21.27;62.92;100257.03;6159825;23;1204;-85
2022/06/27 00:59:30;;;;;;;;;;;;;;;21.03;64.08;100269.09;6160393;23;1347;-85
2022/06/27 01:01:55;;;;;;;;;;;;;;;20.99;64.10;100272.97;6161481;23;1149;-86
2022/06/27 01:04:21;;;;;;;;;;;;;;;21.04;63.88;100275.47;6162050;23;1121;-86
2022/06/27 01:06:48;;;;;;;;;;;;;;;21.11;63.67;100275.66;6161670;23;1905;-86
2022/06/27 01:09:13;;;;;;;;;;;;;;;20.98;63.96;100283.28;6162274;23;1192;-85
2022/06/27 01:11:39;;;;;;;;;;;;;;;20.63;65.28;100288.63;6161326;23;1243;-85
2022/06/27 01:14:04;;;;;;;;;;;;;;;20.70;65.52;100291.63;6159783;23;1302;-86
2022/06/27 01:16:29;;;;;;;;;;;;;;;20.74;65.55;100295.31;6160813;23;1033;-86
2022/06/27 01:18:54;;;;;;;;;;;;;;;20.62;65.63;100294.53;6162027;23;806;-85
2022/06/27 01:21:21;;;;;;;;;;;;;;;20.89;65.45;100306.84;6161132;23;1023;-85
2022/06/27 01:23:46;;;;;;;;;;;;;;;20.73;65.52;100301.25;6161390;23;1358;-85
2022/06/27 01:26:12;;;;;;;;;;;;;;;20.74;65.87;100300.06;6162237;23;1907;-85
2022/06/27 01:28:37;;;;;;;;;;;;;;;20.83;65.52;100297.97;6161892;23;1325;-85
2022/06/27 01:31:02;;;;;;;;;;;;;;;20.96;65.46;100293.94;6162147;23;1145;-86
2022/06/27 01:33:27;;;;;;;;;;;;;;;20.93;65.07;100291.84;6163171;23;1188;-85
2022/06/27 01:36:41;;;;;;;;;;;;;;;21.06;65.28;100298.19;6162439;23;1410;-85
2022/06/27 01:38:38;;;;;;;;;;;;;;;21.09;65.14;100289.94;6164130;23;1153;-85
2022/06/27 01:41:03;;;;;;;;;;;;;;;21.21;65.10;100293.84;6164593;23;1000;-85
2022/06/27 01:43:28;;;;;;;;;;;;;;;21.08;65.00;100304.22;6164254;23;1325;-87
2022/06/27 01:45:53;;;;;;;;;;;;;;;20.99;65.12;100309.13;6163496;23;993;-86
2022/06/27 01:48:19;;;;;;;;;;;;;;;20.79;66.41;100322.06;6163028;23;1873;-85
2022/06/27 01:50:48;;;;;;;;;;;;;;;20.88;66.57;100316.34;6160974;23;1235;-85
2022/06/27 01:53:13;;;;;;;;;;;;;;;20.64;67.03;100315.28;6160717;23;1267;-86
2022/06/27 01:55:39;;;;;;;;;;;;;;;20.69;66.90;100308.66;6165400;23;882;-85
2022/06/27 01:58:04;;;;;;;;;;;;;;;20.86;66.36;100305.56;6165327;23;1051;-86
2022/06/27 02:00:29;;;;;;;;;;;;;;;21.01;65.96;100287.31;6166028;23;893;-85
2022/06/27 02:02:54;;;;;;;;;;;;;;;20.99;66.04;100284.09;6162658;23;1279;-86
2022/06/27 02:05:19;;;;;;;;;;;;;;;20.99;66.21;100284.09;6160779;23;1188;-86
2022/06/27 02:07:45;;;;;;;;;;;;;;;20.92;66.50;100301.41;6161663;23;1884;-85
2022/06/27 02:10:10;;;;;;;;;;;;;;;20.87;67.19;100284.94;6161981;23;1172;-85
2022/06/27 02:12:35;;;;;;;;;;;;;;;20.89;67.06;100281.81;6161531;23;1184;-86
2022/06/27 02:15:00;;;;;;;;;;;;;;;20.84;67.67;100282.06;6159155;23;1303;-87
2022/06/27 02:17:25;;;;;;;;;;;;;;;20.68;68.08;100282.00;6156765;23;977;-87
2022/06/27 02:19:51;;;;;;;;;;;;;;;20.46;68.71;100283.34;6157396;23;683;-86
2022/06/27 02:22:17;;;;;;;;;;;;;;;20.65;68.16;100285.50;6159954;23;1200;-87
2022/06/27 02:24:42;;;;;;;;;;;;;;;20.69;68.21;100284.44;6154689;23;973;-86
2022/06/27 02:27:10;;;;;;;;;;;;;;;20.80;67.53;100295.88;6154580;23;1889;-86
2022/06/27 02:29:36;;;;;;;;;;;;;;;20.64;68.74;100293.03;6154495;23;1271;-86
2022/06/27 02:32:02;;;;;;;;;;;;;;;20.60;68.81;100277.41;6154615;23;1368;-86
2022/06/27 02:34:29;;;;;;;;;;;;;;;20.54;69.39;100279.63;6154807;23;1303;-86
2022/06/27 02:36:55;;;;;;;;;;;;;;;20.55;69.41;100267.34;6155115;23;1240;-86
2022/06/27 02:39:23;;;;;;;;;;;;;;;20.52;69.22;100270.81;6155364;23;1327;-86
2022/06/27 02:41:48;;;;;;;;;;;;;;;20.35;69.68;100277.47;6154781;23;1216;-87
2022/06/27 02:44:14;;;;;;;;;;;;;;;20.56;69.40;100282.88;6155031;23;1275;-86
2022/06/27 02:46:40;;;;;;;;;;;;;;;20.57;69.54;100276.16;6156174;23;2004;-87
2022/06/27 02:49:05;;;;;;;;;;;;;;;20.64;69.85;100283.88;6154669;23;1302;-87
2022/06/27 02:51:35;;;;;;;;;;;;;;;20.65;69.42;100282.72;6154495;23;1229;-87
2022/06/27 02:54:18;;;;;;;;;;;;;;;20.65;69.63;100291.06;6154336;23;1196;-87
2022/06/27 02:56:47;;;;;;;;;;;;;;;20.65;69.87;100291.88;6154321;23;1322;-86
2022/06/27 02:59:23;;;;;;;;;;;;;;;20.65;70.39;100274.38;6154056;23;1287;-86
2022/06/27 03:01:49;;;;;;;;;;;;;;;20.70;69.71;100266.59;6154224;23;1359;-87
2022/06/27 03:04:14;;;;;;;;;;;;;;;20.75;69.40;100273.88;6156864;23;1180;-87
2022/06/27 03:06:39;;;;;;;;;;;;;;;20.57;70.30;100256.69;6155128;23;1920;-87
2022/06/27 03:09:05;;;;;;;;;;;;;;;20.61;70.19;100246.47;6157754;23;790;-87
2022/06/27 03:11:30;;;;;;;;;;;;;;;20.67;70.02;100233.91;6155521;23;1369;-86
2022/06/27 03:13:55;;;;;;;;;;;;;;;20.64;70.21;100231.84;6156851;23;1353;-87
2022/06/27 03:16:22;;;;;;;;;;;;;;;20.62;70.48;100234.16;6155572;23;1421;-86
2022/06/27 03:18:47;;;;;;;;;;;;;;;20.57;70.34;100237.22;6153816;23;1369;-87
2022/06/27 03:21:13;;;;;;;;;;;;;;;20.33;71.48;100223.38;6157181;23;904;-87
2022/06/27 03:23:39;;;;;;;;;;;;;;;20.42;71.30;100217.69;6155167;23;1242;-87
2022/06/27 03:26:04;;;;;;;;;;;;;;;20.48;71.48;100192.06;6157067;23;1928;-87
2022/06/27 03:28:29;;;;;;;;;;;;;;;20.55;71.13;100186.69;6157402;23;818;-87
2022/06/27 03:30:55;;;;;;;;;;;;;;;20.53;70.81;100183.47;6155581;23;1225;-88
2022/06/27 03:33:20;;;;;;;;;;;;;;;20.48;71.09;100182.91;6155025;23;1261;-88
2022/06/27 03:35:45;;;;;;;;;;;;;;;20.44;71.65;100174.47;6157084;23;976;-87
2022/06/27 03:38:12;;;;;;;;;;;;;;;20.44;71.71;100166.13;6157144;23;1000;-87
2022/06/27 03:40:37;;;;;;;;;;;;;;;20.41;71.88;100152.97;6155392;23;1192;-87
2022/06/27 03:43:02;;;;;;;;;;;;;;;20.36;72.08;100147.63;6155102;23;1408;-88
2022/06/27 03:45:28;;;;;;;;;;;;;;;20.30;71.30;100133.16;6155791;23;1247;-88
2022/06/27 03:47:54;;;;;;;;;;;;;;;20.27;71.79;100133.03;6157250;23;1881;-88
2022/06/27 03:50:20;;;;;;;;;;;;;;;20.11;72.77;100134.97;6156440;23;798;-87
2022/06/27 03:52:45;;;;;;;;;;;;;;;20.23;72.66;100129.38;6155286;23;1367;-87
2022/06/27 03:55:11;;;;;;;;;;;;;;;20.27;72.54;100130.25;6155610;23;985;-88
2022/06/27 03:57:37;;;;;;;;;;;;;;;20.18;73.06;100119.31;6156806;23;917;-87
2022/06/27 04:00:04;;;;;;;;;;;;;;;20.29;72.77;100127.94;6155153;23;1212;-88
2022/06/27 04:02:29;;;;;;;;;;;;;;;20.36;72.32;100112.31;6158166;23;1290;-88
2022/06/27 04:04:54;;;;;;;;;;;;;;;20.34;71.95;100111.03;6167015;23;712;-87
2022/06/27 04:07:19;;;;;;;;;;;;;;;20.18;72.89;100097.06;6162000;23;1866;-88
2022/06/27 04:09:45;;;;;;;;;;;;;;;20.01;73.42;100098.19;6160329;23;992;-87
2022/06/27 04:12:11;;;;;;;;;;;;;;;20.16;73.01;100095.84;6164444;23;1064;-86
2022/06/27 04:14:37;;;;;;;;;;;;;;;20.17;72.85;100097.41;6160647;23;1189;-86
2022/06/27 04:17:03;;;;;;;;;;;;;;;20.13;73.30;100096.53;6166766;23;1180;-87
2022/06/27 04:19:28;;;;;;;;;;;;;;;19.98;74.02;100093.34;6164888;23;1305;-86
2022/06/27 04:21:53;;;;;;;;;;;;;;;19.97;74.51;100100.06;6161509;23;794;-87
2022/06/27 04:24:20;;;;;;;;;;;;;;;20.08;74.58;100103.13;6160724;23;1200;-87
2022/06/27 04:26:45;;;;;;;;;;;;;;;19.96;74.50;100100.41;6156701;23;1888;-87
2022/06/27 04:29:11;;;;;;;;;;;;;;;20.04;73.78;100105.00;6155662;23;1029;-87
2022/06/27 04:31:36;;;;;;;;;;;;;;;20.13;73.83;100113.19;6159031;23;814;-88
2022/06/27 04:34:01;;;;;;;;;;;;;;;20.03;73.98;100115.31;6156117;23;1200;-87
2022/06/27 04:36:27;;;;;;;;;;;;;;;19.96;74.11;100123.44;6154453;23;1370;-88
2022/06/27 04:38:52;;;;;;;;;;;;;;;19.93;73.97;100131.66;6154943;23;993;-88
2022/06/27 04:41:18;;;;;;;;;;;;;;;20.16;73.14;100126.41;6154601;23;1319;-87
2022/06/27 04:43:43;;;;;;;;;;;;;;;20.05;72.97;100130.84;6153846;23;1468;-87
2022/06/27 04:46:08;;;;;;;;;;;;;;;20.15;73.32;100139.47;6155793;23;1877;-86
2022/06/27 04:48:34;;;;;;;;;;;;;;;20.31;73.37;100147.88;6154591;23;1207;-87
2022/06/27 04:51:00;;;;;;;;;;;;;;;20.43;72.51;100152.56;6155914;23;805;-88
2022/06/27 04:53:25;;;;;;;;;;;;;;;20.50;72.31;100150.00;6155177;23;1266;-86
2022/06/27 04:55:51;;;;;;;;;;;;;;;20.50;72.35;100148.00;6154738;23;1252;-88
2022/06/27 04:58:17;;;;;;;;;;;;;;;20.46;72.46;100154.66;6155011;23;1271;-89
2022/06/27 05:00:42;;;;;;;;;;;;;;;20.29;72.92;100148.22;6162330;23;766;-87
2022/06/27 05:03:08;;;;;;;;;;;;;;;20.26;73.23;100154.47;6161019;23;1200;-87
2022/06/27 05:05:33;;;;;;;;;;;;;;;20.31;73.40;100159.00;6162875;23;1189;-87
2022/06/27 05:08:00;;;;;;;;;;;;;;;20.32;73.34;100155.06;6163481;23;1912;-88
2022/06/27 05:10:26;;;;;;;;;;;;;;;20.38;72.91;100154.47;6161182;23;842;-89
2022/06/27 05:12:51;;;;;;;;;;;;;;;20.39;73.03;100150.53;6158446;23;1251;-89
2022/06/27 05:15:18;;;;;;;;;;;;;;;20.25;73.77;100152.03;6160401;23;1047;-88
2022/06/27 05:17:43;;;;;;;;;;;;;;;20.18;73.92;100157.41;6159539;23;1207;-89
2022/06/27 05:20:09;;;;;;;;;;;;;;;20.02;74.04;100160.13;6159924;23;1326;-89
2022/06/27 05:22:34;;;;;;;;;;;;;;;20.03;74.92;100145.88;6159049;23;1263;-88
2022/06/27 05:24:59;;;;;;;;;;;;;;;20.19;75.20;100173.72;6161208;23;1286;-89
2022/06/27 05:27:24;;;;;;;;;;;;;;;20.27;74.10;100175.56;6159532;23;1943;-90
2022/06/27 05:29:50;;;;;;;;;;;;;;;20.28;74.24;100173.59;6159558;23;1200;-89
2022/06/27 05:32:15;;;;;;;;;;;;;;;20.22;74.23;100178.59;6160345;23;1446;-89
2022/06/27 05:34:40;;;;;;;;;;;;;;;19.95;75.26;100190.47;6159304;23;902;-87
2022/06/27 05:37:06;;;;;;;;;;;;;;;20.10;75.63;100198.06;6162382;23;791;-88
2022/06/27 05:39:33;;;;;;;;;;;;;;;20.20;75.43;100205.91;6160167;23;1201;-89
2022/06/27 05:41:58;;;;;;;;;;;;;;;20.26;75.06;100212.84;6161150;23;1263;-89
2022/06/27 05:44:25;;;;;;;;;;;;;;;20.33;74.97;100196.38;6159996;23;1311;-89
2022/06/27 05:46:50;;;;;;;;;;;;;;;20.41;74.45;100164.06;6163209;23;1907;-88
2022/06/27 05:49:15;;;;;;;;;;;;;;;20.37;74.62;100136.16;6161687;23;1335;-90
2022/06/27 05:51:41;;;;;;;;;;;;;;;20.38;74.52;100150.88;6162244;23;1239;-91
2022/06/27 05:54:08;;;;;;;;;;;;;;;20.36;73.62;100170.69;6160564;23;1216;-88
2022/06/27 05:56:34;;;;;;;;;;;;;;;20.33;74.38;100176.13;6158696;23;1374;-87
2022/06/27 05:59:02;;;;;;;;;;;;;;;20.42;74.59;100170.41;6159487;23;1236;-89
2022/06/27 06:01:27;;;;;;;;;;;;;;;20.42;74.96;100170.41;6161020;23;1374;-88
2022/06/27 06:03:53;;;;;;;;;;;;;;;20.55;74.53;100175.59;6160650;23;1354;-90
2022/06/27 06:06:18;;;;;;;;;;;;;;;20.56;74.38;100177.19;6165203;23;1910;-89
2022/06/27 06:08:43;;;;;;;;;;;;;;;20.50;74.86;100184.16;6165949;23;831;-88
2022/06/27 06:11:09;;;;;;;;;;;;;;;20.53;74.44;100177.09;6163691;23;1169;-87
2022/06/27 06:13:34;;;;;;;;;;;;;;;20.54;74.74;100185.09;6162350;23;1204;-89
2022/06/27 06:16:00;;;;;;;;;;;;;;;20.58;74.30;100174.88;6161255;23;850;-88
2022/06/27 06:18:25;;;;;;;;;;;;;;;20.61;74.64;100178.91;6162574;23;1053;-89
2022/06/27 06:20:50;;;;;;;;;;;;;;;20.64;75.10;100190.13;6164561;23;1055;-89
2022/06/27 06:23:15;;;;;;;;;;;;;;;20.69;75.27;100198.22;6164178;23;1299;-89
2022/06/27 06:25:42;;;;;;;;;;;;;;;20.74;75.30;100209.09;6163573;23;877;-88
2022/06/27 06:28:08;;;;;;;;;;;;;;;20.76;75.27;100208.72;6167748;23;1881;-87
2022/06/27 06:30:33;;;;;;;;;;;;;;;20.75;75.50;100207.13;6166325;23;994;-89
2022/06/27 06:33:02;;;;;;;;;;;;;;;20.81;75.00;100216.00;6155037;23;1251;-89
2022/06/27 06:35:27;;;;;;;;;;;;;;;20.80;75.15;100217.97;6155678;23;758;-88
2022/06/27 06:37:53;;;;;;;;;;;;;;;20.71;74.52;100220.94;6156792;23;1011;-89
2022/06/27 06:40:18;;;;;;;;;;;;;;;20.75;75.43;100212.69;6158045;23;1006;-88
2022/06/27 06:42:44;;;;;;;;;;;;;;;20.75;75.13;100221.84;6156811;23;1298;-90
2022/06/27 06:45:10;;;;;;;;;;;;;;;20.71;75.10;100225.66;6159129;23;964;-90
2022/06/27 06:47:46;;;;;;;;;;;;;;;20.65;74.69;100227.91;6159021;23;1897;-90
2022/06/27 06:50:15;;;;;;;;;;;;;;;20.63;75.14;100223.84;6157951;23;806;-89
2022/06/27 06:52:42;;;;;;;;;;;;;;;20.69;75.17;100228.81;6156006;23;1196;-89
2022/06/27 06:55:09;;;;;;;;;;;;;;;20.80;75.89;100222.72;6156060;23;1310;-89
2022/06/27 06:57:34;;;;;;;;;;;;;;;20.84;75.37;100226.44;6156091;23;1302;-89
2022/06/27 06:59:59;;;;;;;;;;;;;;;20.91;74.85;100202.41;6155628;23;1263;-89
2022/06/27 07:02:25;;;;;;;;;;;;;;;20.87;74.66;100198.69;6155364;23;1267;-87
2022/06/27 07:04:50;;;;;;;;;;;;;;;20.98;74.80;100190.63;6157298;23;846;-88
2022/06/27 07:07:17;;;;;;;;;;;;;;;21.05;74.78;100193.59;6158100;23;2161;-88
2022/06/27 07:09:42;;;;;;;;;;;;;;;20.96;74.90;100206.88;6155911;23;1257;-89
2022/06/27 07:12:08;;;;;;;;;;;;;;;21.00;74.88;100199.44;6155897;23;1204;-90
2022/06/27 07:14:33;;;;;;;;;;;;;;;21.09;74.27;100219.56;6155867;23;1240;-90
2022/06/27 07:16:59;;;;;;;;;;;;;;;21.16;74.37;100222.53;6155871;23;1029;-86
2022/06/27 07:19:24;;;;;;;;;;;;;;;21.08;73.65;100215.97;6156180;23;834;-89
2022/06/27 07:21:49;;;;;;;;;;;;;;;21.08;73.85;100212.38;6155635;23;845;-85
2022/06/27 07:24:15;;;;;;;;;;;;;;;21.21;72.68;100210.34;6153665;23;1208;-87
2022/06/27 07:26:40;;;;;;;;;;;;;;;21.29;72.84;100210.16;6156192;23;1936;-88
2022/06/27 07:29:06;;;;;;;;;;;;;;;21.29;72.83;100210.16;6152573;23;1280;-88
2022/06/27 07:31:32;;;;;;;;;;;;;;;21.33;71.93;100211.06;6154612;23;1231;-87
2022/06/27 07:33:59;;;;;;;;;;;;;;;21.31;72.28;100213.41;6155714;23;1255;-88
2022/06/27 07:36:25;;;;;;;;;;;;;;;21.39;71.97;100209.63;6154405;23;1215;-87
2022/06/27 07:38:52;;;;;;;;;;;;;;;21.49;72.74;100197.94;6155865;23;806;-87
2022/06/27 07:41:21;;;;;;;;;;;;;;;21.51;71.99;100201.19;6155582;23;831;-87
2022/06/27 07:43:46;;;;;;;;;;;;;;;21.51;72.77;100208.72;6155068;23;1129;-87
2022/06/27 07:46:12;;;;;;;;;;;;;;;21.54;73.17;100221.91;6155345;23;1928;-87
2022/06/27 07:48:38;;;;;;;;;;;;;;;21.61;72.07;100226.84;6154584;23;1284;-87
2022/06/27 07:51:03;;;;;;;;;;;;;;;21.67;72.49;100230.97;6154440;23;1314;-87
2022/06/27 07:53:29;;;;;;;;;;;;;;;21.71;72.04;100220.72;6156187;23;1267;-87
2022/06/27 07:55:55;;;;;;;;;;;;;;;21.70;72.15;100221.88;6155593;23;1259;-87
2022/06/27 07:58:26;;;;;;;;;;;;;;;21.74;71.74;100225.56;6155417;23;1161;-87
2022/06/27 08:00:51;;;;;;;;;;;;;;;21.85;72.50;100233.03;6157052;23;837;-86
2022/06/27 08:06:04;;;;;;;;;;;;;;;21.74;69.38;100245.88;6157093;23;609;-87
2022/06/27 08:08:32;;;;;;;;;;;;;;;21.74;71.32;100240.31;6156813;23;1877;-86
2022/06/27 08:10:57;;;;;;;;;;;;;;;21.65;70.38;100248.06;6154349;23;1188;-86
2022/06/27 08:13:22;;;;;;;;;;;;;;;21.71;70.38;100243.81;6153766;23;1275;-88
2022/06/27 08:15:48;;;;;;;;;;;;;;;21.75;70.56;100244.72;6156957;23;874;-87
2022/06/27 08:18:17;;;;;;;;;;;;;;;21.87;70.63;100249.34;6156429;23;814;-87
2022/06/27 08:20:45;;;;;;;;;;;;;;;21.94;69.96;100262.66;6155099;23;1295;-87
2022/06/27 08:23:11;;;;;;;;;;;;;;;21.99;70.28;100266.00;6156740;23;1217;-86
2022/06/27 08:25:37;;;;;;;;;;;;;;;22.06;69.93;100262.56;6156321;23;833;-87
2022/06/27 08:28:03;;;;;;;;;;;;;;;22.00;68.59;100267.63;6156666;23;1893;-86
2022/06/27 08:30:28;;;;;;;;;;;;;;;21.94;68.35;100271.84;6155106;23;1288;-87
2022/06/27 08:32:55;;;;;;;;;;;;;;;21.89;67.86;100269.31;6155024;23;1263;-87
2022/06/27 08:35:20;;;;;;;;;;;;;;;22.03;70.01;100272.47;6154927;23;1208;-87
2022/06/27 08:37:46;;;;;;;;;;;;;;;22.06;68.74;100277.31;6155245;23;1355;-87
2022/06/27 08:40:12;;;;;;;;;;;;;;;21.99;68.11;100277.16;6154939;23;1337;-86
2022/06/27 08:42:38;;;;;;;;;;;;;;;22.13;69.15;100269.09;6156589;23;1255;-88
2022/06/27 08:45:07;;;;;;;;;;;;;;;22.23;67.58;100270.53;6154857;23;1386;-88
2022/06/27 08:47:32;;;;;;;;;;;;;;;22.24;68.77;100274.94;6154917;23;1889;-87
2022/06/27 08:49:57;;;;;;;;;;;;;;;22.17;68.76;100260.84;6156829;23;1087;-89
2022/06/27 08:52:22;;;;;;;;;;;;;;;22.14;70.31;100267.13;6156524;23;1271;-87
2022/06/27 08:54:51;;;;;;;;;;;;;;;22.19;69.78;100269.66;6154763;23;1233;-86
2022/06/27 08:57:18;;;;;;;;;;;;;;;22.24;70.23;100261.81;6156311;23;814;-87
2022/06/27 08:59:44;;;;;;;;;;;;;;;22.19;68.93;100266.88;6156584;23;791;-88
2022/06/27 09:02:09;;;;;;;;;;;;;;;22.26;70.19;100269.81;6154524;23;1248;-88
2022/06/27 09:04:59;;;;;;;;;;;;;;;22.29;69.23;100259.91;6156522;23;1196;-86
2022/06/27 09:07:45;;;;;;;;;;;;;;;22.36;69.73;100269.25;6154875;23;1932;-87
2022/06/27 09:10:27;;;;;;;;;;;;;;;22.33;68.13;100283.91;6154827;23;1211;-86
2022/06/27 09:12:54;;;;;;;;;;;;;;;22.27;68.48;100290.94;6154144;23;1283;-87
2022/06/27 09:15:19;;;;;;;;;;;;;;;22.06;68.35;100294.03;6154548;23;1314;-87
2022/06/27 09:17:45;;;;;;;;;;;;;;;21.87;68.33;100288.38;6154670;23;1251;-88
2022/06/27 09:20:11;;;;;;;;;;;;;;;22.04;69.79;100303.94;6156126;23;815;-87
2022/06/27 09:22:36;;;;;;;;;;;;;;;21.98;68.46;100308.16;6154088;23;3496;-84
2022/06/27 09:25:06;;;;;;;;;;;;;;;22.10;69.32;100300.53;6153985;23;1271;-85
2022/06/27 09:27:50;;;;;;;;;;;;;;;22.17;67.86;100297.09;6154882;23;1952;-86
2022/06/27 09:30:18;;;;;;;;;;;;;;;22.33;67.85;100291.47;6156524;23;856;-85
2022/06/27 09:32:43;;;;;;;;;;;;;;;22.56;67.92;100295.97;6155673;23;1164;-84
2022/06/27 09:35:20;;;;;;;;;;;;;;;22.73;69.05;100297.50;6155780;23;992;-85
2022/06/27 09:37:52;;;;;;;;;;;;;;;22.41;66.89;100293.22;6156071;23;1000;-85
2022/06/27 09:40:17;;;;;;;;;;;;;;;22.26;68.53;100269.81;6155159;23;1347;-87
2022/06/27 09:42:44;;;;;;;;;;;;;;;22.38;66.96;100274.44;6156599;23;1161;-87
2022/06/27 09:45:10;;;;;;;;;;;;;;;22.47;67.13;100269.44;6157077;23;858;-86
2022/06/27 09:48:37;;;;;;;;;;;;;;;22.78;66.61;100258.19;6155747;23;1913;-88
2022/06/27 09:50:57;;;;;;;;;;;;;;;23.06;66.06;100257.09;6128318;23;1164;-87
2022/06/27 09:54:21;;;;;;;;;;;;;;;;;;;;;
2022/06/27 09:57:29;;;;;;;;;;;;;;;23.13;66.38;100266.44;6151977;23;1088;-87
2022/06/27 10:00:13;;;;;;;;;;;;;;;22.99;66.39;100244.63;6142923;23;1038;-86
2022/06/27 10:02:39;;;;;;;;;;;;;;;23.07;67.43;100253.94;6154731;23;1258;-87
2022/06/27 10:05:05;;;;;;;;;;;;;;;23.10;64.81;100253.22;6156392;23;955;-87
2022/06/27 10:07:31;;;;;;;;;;;;;;;22.94;65.18;100250.53;6157385;23;1924;-86
2022/06/27 10:09:56;;;;;;;;;;;;;;;22.99;67.43;100261.38;6155751;23;837;-87
2022/06/27 10:12:24;;;;;;;;;;;;;;;23.03;67.38;100275.41;6156415;23;1686;-86
2022/06/27 10:15:08;;;;;;;;;;;;;;;23.10;65.97;100271.94;6157813;23;857;-87
2022/06/27 10:17:35;;;;;;;;;;;;;;;23.43;66.20;100285.31;6158083;23;1016;-86
2022/06/27 10:20:05;;;;;;;;;;;;;;;23.71;66.22;100281.06;6158767;23;798;-85
2022/06/27 10:22:30;;;;;;;;;;;;;;;23.88;66.12;100278.91;6175016;23;1281;-87
2022/06/27 10:24:55;;;;;;;;;;;;;;;23.90;65.41;100285.75;6189990;23;976;-86
2022/06/27 10:27:30;;;;;;;;;;;;;;;23.91;64.35;100284.56;6189717;23;1885;-86
2022/06/27 10:29:56;;;;;;;;;;;;;;;24.07;64.90;100290.00;6190327;23;885;-87
2022/06/27 10:32:41;;;;;;;;;;;;;;;23.82;65.71;100281.22;6190072;23;1273;-89
2022/06/27 10:35:09;;;;;;;;;;;;;;;23.51;65.06;100273.91;6190047;23;826;-87
2022/06/27 10:37:35;;;;;;;;;;;;;;;23.40;65.00;100273.69;6190929;23;821;-87
2022/06/27 10:40:18;;;;;;;;;;;;;;;23.42;65.83;100276.13;6188738;23;1043;-86
2022/06/27 10:42:43;;;;;;;;;;;;;;;23.46;65.30;100279.00;6190791;23;1194;-86
2022/06/27 10:45:20;;;;;;;;;;;;;;;23.59;65.77;100269.25;6188517;23;1047;-86
2022/06/27 10:47:53;;;;;;;;;;;;;;;23.55;65.05;100274.81;6188120;23;1916;-86
2022/06/27 10:50:19;;;;;;;;;;;;;;;23.52;64.20;100280.31;6188607;23;945;-87
2022/06/27 10:52:44;;;;;;;;;;;;;;;23.36;63.76;100292.41;6188253;23;1251;-86
2022/06/27 10:55:21;;;;;;;;;;;;;;;23.31;64.98;100281.50;6187500;23;837;-86
2022/06/27 10:57:46;;;;;;;;;;;;;;;23.42;64.53;100284.50;6187907;23;889;-84
2022/06/27 11:00:31;;;;;;;;;;;;;;;23.52;65.19;100275.53;6188059;23;841;-86
2022/06/27 11:02:58;;;;;;;;;;;;;;;23.49;63.51;100264.28;6161827;23;1398;-86
2022/06/27 11:05:23;;;;;;;;;;;;;;;23.68;63.92;100275.41;6162058;23;1323;-86
2022/06/27 11:07:50;;;;;;;;;;;;;;;23.72;63.07;100279.88;6188640;23;1928;-87
2022/06/27 11:10:16;;;;;;;;;;;;;;;23.72;63.32;100277.09;6186991;23;960;-86
2022/06/27 11:12:41;;;;;;;;;;;;;;;23.83;64.23;100268.03;6187344;23;1246;-85
2022/06/27 11:15:09;;;;;;;;;;;;;;;23.92;62.87;100266.59;6187516;23;767;-86
2022/06/27 11:17:38;;;;;;;;;;;;;;;23.93;62.85;100273.81;6188104;23;881;-86
2022/06/27 11:20:18;;;;;;;;;;;;;;;23.80;64.61;100264.03;6188076;23;935;-87
2022/06/27 11:22:44;;;;;;;;;;;;;;;23.73;63.83;100264.69;6190750;23;1258;-87
2022/06/27 11:25:10;;;;;;;;;;;;;;;23.61;64.57;100259.31;6193779;23;817;-90
2022/06/27 11:27:45;;;;;;;;;;;;;;;23.55;63.96;100263.63;6189900;23;1889;-87
2022/06/27 11:32:54;;;;;;;;;;;;;;;23.76;63.45;100255.56;6188497;23;1302;-87
2022/06/27 11:35:20;;;;;;;;;;;;;;;24.04;63.97;100260.81;6162013;23;1236;-88
2022/06/27 11:37:45;;;;;;;;;;;;;;;24.16;61.15;100261.78;6188930;23;1112;-86
2022/06/27 11:40:10;;;;;;;;;;;;;;;24.19;61.68;100266.59;6171457;23;755;-86
2022/06/27 11:46:11;;;;;;;;;;;;;;;24.04;62.64;100260.00;6185775;23;734;-87
2022/06/27 13:15:02;;;;;;;;;;;;;;;22.51;68.29;100312.19;6151028;23;2089;-87
2022/06/27 13:18:14;;;;;;;;;;;;;;;22.56;67.55;100323.84;6156940;23;1040;-88
2022/06/27 13:24:13;;;;;;;;;;;;;;;22.65;67.26;100343.16;6127150;23;897;-87
2022/06/27 13:27:12;;;;;;;;;;;;;;;;;;;;;
2022/06/27 13:30:28;;;;;;;;;;;;;;;22.37;69.06;100348.91;6049744;23;1248;-88
2022/06/27 13:33:27;;;;;;;;;;;;;;;22.14;69.92;100351.56;6068204;23;1200;-86
2022/06/27 13:36:01;;;;;;;;;;;;;;;22.12;68.76;100345.53;6098725;23;998;-86
2022/06/27 13:42:21;;;;;;;;;;;;;;;;;;;;;
2022/06/27 13:45:30;;;;;;;;;;;;;;;22.41;67.45;100360.16;5965675;23;1205;-87
2022/06/27 13:48:04;;;;;;;;;;;;;;;22.38;67.74;100372.84;6029025;23;1943;-86
2022/06/27 13:50:52;;;;;;;;;;;;;;;;;;;;;
2022/06/27 13:53:23;;;;;;;;;;;;;;;21.99;69.36;100383.06;6121412;23;1293;-86
2022/06/27 13:56:17;;;;;;;;;;;;;;;22.14;69.02;100381.44;6064492;23;1178;-87
2022/06/27 13:58:42;;;;;;;;;;;;;;;22.06;68.80;100374.88;6047942;23;1162;-88
2022/06/27 14:01:08;;;;;;;;;;;;;;;21.96;69.31;100386.53;6127416;23;1179;-88
2022/06/27 14:03:33;;;;;;;;;;;;;;;22.10;68.39;100394.50;6124708;23;1916;-88
2022/06/27 14:07:36;;;;;;;;;;;;;;;22.25;68.29;100379.72;6127997;23;922;-88
2022/06/27 14:08:43;;;;;;;;;;;;;;;22.24;67.73;100397.63;6127656;23;1870;-88
2022/06/27 14:11:09;;;;;;;;;;;;;;;22.06;68.78;100421.44;6126510;23;1362;-88
2022/06/27 14:13:34;;;;;;;;;;;;;;;21.83;70.60;100427.63;6124999;23;1221;-88
2022/06/27 14:15:59;;;;;;;;;;;;;;;21.84;70.30;100429.25;6124629;23;1108;-88
2022/06/27 14:18:24;;;;;;;;;;;;;;;21.52;72.10;100433.94;6127705;23;870;-88
2022/06/27 14:20:49;;;;;;;;;;;;;;;21.92;71.24;100427.44;6125672;23;1239;-88
2022/06/27 14:23:15;;;;;;;;;;;;;;;21.88;71.40;100432.91;6124329;23;1361;-88
2022/06/27 14:25:40;;;;;;;;;;;;;;;21.77;72.14;100436.63;6123944;23;1497;-87
2022/06/27 14:28:05;;;;;;;;;;;;;;;21.99;71.23;100443.56;6123071;23;1933;-88
2022/06/27 14:30:30;;;;;;;;;;;;;;;22.06;69.74;100440.97;6125776;23;772;-87
2022/06/27 14:32:56;;;;;;;;;;;;;;;22.07;70.64;100429.47;6125298;23;1274;-86
2022/06/27 14:35:21;;;;;;;;;;;;;;;22.25;70.54;100421.53;6125997;23;787;-87
2022/06/27 14:37:46;;;;;;;;;;;;;;;22.48;69.28;100393.78;6126014;23;861;-87
2022/06/27 14:40:11;;;;;;;;;;;;;;;23.18;68.04;100382.59;6123996;23;969;-87